Etusivu
METAR-TAF:

METAR-TAF

Lentoasemat :

Nordholz, Saksa

Leveyspiiri: 53-46N, Pituuspiiri: 008-40E, korkeus merenpinnasta: 23 m

Tämänhetkinen sää

Tämä raportti tehtiin 55 minuuttia sitten, kello 12.20 UTC
Tuuli 22 kn koillisesta
Lämpötila 6°C
Kosteus 39%
Ilmanpaine 1032 hPa
Näkyvyys 10 km tai enemmän
Hajanaisia pilviä 4300 ft:n korkeudessa

METAR: ETMN 291220Z 04022KT 9999 SCT043 06/M07 Q1032 BLU+

Aika: 15:15 (13:15 UTC)


TAF: puuttuu

Säähavainnot ja -ennusteet yli 4000 lentoasemalta (METAR- ja TAF-raportit).

Käytössä olevat sääasemat on merkitty karttaan keltaisilla ja punaisilla pisteillä.

Aseta hiiri pisteen päälle nähdäksesi sääaseman nimen.

Klikkaa sitten nähdäksesi säähavainnot ja -ennusteet.

Kartan vaihtaminen: klikkaa mustalla rastilla varustettuja vihreitä pisteitä, niin voit zoomata sisään; viivalla varustettua vihreää pistettä, niin voit zoomata ulos tai vihreitä nuolia, niin pääset viereisille kartoille.


METAR-TAF: